Time;durP1;ratioP1;P1;durP2;ratioP2;P2;SDS_P1;SDS_P2;PMS_P1;PMS_P2;Temp;Humidity;BMP_temperature;BMP_pressure;BME280_temperature;BME280_humidity;BME280_pressure;Samples;Min_cycle;Max_cycle;Signal;HPM_P1;HPM_P2
2022/08/16 00:00:06;;;;;;;377.08;272.42;;;;;;;24.27;73.76;98961.56;308794;31;4003;-76
2022/08/16 00:00:18;;;;;;;377.23;273.23;;;;;;;24.26;73.61;98957.22;308978;31;1503;-76
2022/08/16 00:00:29;;;;;;;375.52;273.90;;;;;;;24.27;73.26;98960.72;305944;32;1353;-76
2022/08/16 00:00:41;;;;;;;374.80;269.92;;;;;;;24.27;73.20;98960.72;308382;31;3988;-76
2022/08/16 00:00:51;;;;;;;371.15;269.90;;;;;;;24.27;73.40;98961.56;307627;32;4376;-76
2022/08/16 00:01:02;;;;;;;371.50;269.47;;;;;;;24.27;73.55;98956.22;306254;32;1230;-76
2022/08/16 00:01:12;;;;;;;375.25;275.52;;;;;;;24.28;73.29;98957.03;303123;32;4788;-76
2022/08/16 00:01:23;;;;;;;376.33;274.20;;;;;;;24.28;73.36;98957.03;299511;32;3757;-76
2022/08/16 00:01:33;;;;;;;376.83;273.20;;;;;;;24.28;73.31;98954.38;294278;32;3836;-76
2022/08/16 00:01:43;;;;;;;378.33;274.50;;;;;;;24.26;73.28;98957.22;295076;33;1351;-76
2022/08/16 00:01:54;;;;;;;382.37;278.27;;;;;;;24.24;72.84;98956.53;298441;32;4371;-77
2022/08/16 00:02:05;;;;;;;381.67;279.38;;;;;;;24.25;72.79;98957.38;299212;32;6523;-76
2022/08/16 00:02:16;;;;;;;381.73;281.38;;;;;;;24.21;72.70;98957.69;295674;33;1144;-76
2022/08/16 00:02:26;;;;;;;380.55;281.33;;;;;;;24.20;72.68;98949.84;293358;33;4260;-76
2022/08/16 00:02:36;;;;;;;379.53;275.47;;;;;;;24.20;73.00;98956.03;292416;33;6857;-77
2022/08/16 00:02:47;;;;;;;377.03;271.97;;;;;;;24.19;72.76;98954.34;295739;33;934;-76
2022/08/16 00:02:57;;;;;;;375.10;271.15;;;;;;;24.20;73.14;98955.19;293716;33;5102;-76
2022/08/16 00:03:08;;;;;;;376.30;274.57;;;;;;;24.21;72.86;98957.69;292552;33;6006;-77
2022/08/16 00:03:19;;;;;;;377.88;273.23;;;;;;;24.21;72.87;98955.03;290307;33;6686;-77
2022/08/16 00:03:29;;;;;;;378.63;270.17;;;;;;;24.21;73.05;98957.69;288705;34;1339;-77
2022/08/16 00:03:39;;;;;;;379.20;270.43;;;;;;;24.20;72.98;98956.03;292969;33;5187;-76
2022/08/16 00:03:51;;;;;;;377.60;269.88;;;;;;;24.20;72.60;98956.03;291779;33;5552;-76
2022/08/16 00:04:01;;;;;;;377.35;272.33;;;;;;;24.20;72.73;98956.03;290942;34;893;-76
2022/08/16 00:04:12;;;;;;;379.83;273.80;;;;;;;24.21;72.97;98948.84;287978;33;6563;-76
2022/08/16 00:04:22;;;;;;;379.95;276.00;;;;;;;24.21;72.81;98951.50;283207;34;8016;-76
2022/08/16 00:04:33;;;;;;;379.17;273.73;;;;;;;24.24;72.77;98953.03;282290;35;944;-76
2022/08/16 00:04:43;;;;;;;375.40;270.20;;;;;;;24.23;72.92;98954.03;285321;34;6150;-76
2022/08/16 00:04:53;;;;;;;375.27;265.83;;;;;;;24.22;72.97;98953.19;283693;34;8967;-76
2022/08/16 00:06:47;;;;;;;366.80;250.96;;;;;;;24.20;72.57;98949.84;2492857;27;20292;-77
2022/08/16 00:06:57;;;;;;;372.87;268.00;;;;;;;24.21;72.72;98956.88;351169;28;1178;-76
2022/08/16 00:07:07;;;;;;;373.40;270.48;;;;;;;24.20;72.80;98950.69;348564;28;888;-76
2022/08/16 00:07:18;;;;;;;371.53;268.57;;;;;;;24.20;73.04;98953.34;348442;28;1285;-77
2022/08/16 00:07:28;;;;;;;373.03;270.93;;;;;;;24.19;72.64;98954.34;347073;28;1299;-77
2022/08/16 00:07:39;;;;;;;374.83;273.60;;;;;;;24.19;73.04;98951.69;348108;28;1373;-77
2022/08/16 00:07:50;;;;;;;374.40;272.05;;;;;;;24.20;72.85;98952.50;345833;28;901;-77
2022/08/16 00:08:00;;;;;;;372.50;267.60;;;;;;;24.19;72.75;98956.19;347066;28;1290;-77
2022/08/16 00:08:11;;;;;;;370.17;262.48;;;;;;;24.20;73.03;98956.03;346836;28;1329;-76
2022/08/16 00:08:21;;;;;;;372.03;266.07;;;;;;;24.18;72.95;98952.69;348161;28;1316;-76
2022/08/16 00:08:31;;;;;;;374.40;269.80;;;;;;;24.18;73.01;98958.03;350412;28;1593;-76
2022/08/16 00:08:42;;;;;;;375.40;274.13;;;;;;;24.18;72.67;98952.69;347574;28;917;-76
2022/08/16 00:08:52;;;;;;;375.90;273.05;;;;;;;24.18;72.85;98952.69;348341;28;976;-76
2022/08/16 00:09:03;;;;;;;375.33;271.70;;;;;;;24.18;72.70;98947.34;347129;28;849;-76
2022/08/16 00:09:13;;;;;;;376.98;270.05;;;;;;;24.19;72.56;98954.34;347068;28;888;-77
2022/08/16 00:09:24;;;;;;;376.93;273.77;;;;;;;24.19;72.78;98958.88;346257;28;1362;-77
2022/08/16 00:09:34;;;;;;;374.80;273.65;;;;;;;24.19;72.86;98953.53;347120;28;867;-77
2022/08/16 00:09:45;;;;;;;372.30;272.20;;;;;;;24.19;72.76;98956.19;347096;28;1295;-77
2022/08/16 00:09:58;;;;;;;372.42;272.10;;;;;;;24.20;72.71;98960.53;348468;28;1401;-77
2022/08/16 00:10:11;;;;;;;373.25;271.25;;;;;;;24.19;72.83;98954.34;346971;28;1142;-77
2022/08/16 00:10:22;;;;;;;371.73;269.08;;;;;;;24.19;73.12;98954.34;345559;28;1444;-76
2022/08/16 00:10:32;;;;;;;374.23;270.02;;;;;;;24.19;73.03;98954.34;346821;28;1302;-76
2022/08/16 00:10:43;;;;;;;374.23;269.47;;;;;;;24.18;72.75;98951.84;345418;28;1222;-76
2022/08/16 00:10:53;;;;;;;374.75;271.20;;;;;;;24.17;73.14;98959.03;345897;28;1195;-76
2022/08/16 00:11:05;;;;;;;372.93;268.63;;;;;;;24.15;72.98;98957.53;347425;28;2902;-76
2022/08/16 00:11:16;;;;;;;377.63;270.25;;;;;;;24.15;73.08;98953.00;344496;28;2960;-76
2022/08/16 00:11:27;;;;;;;378.52;269.27;;;;;;;24.14;73.15;98956.69;347192;28;1036;-76
2022/08/16 00:11:39;;;;;;;379.35;268.10;;;;;;;24.11;72.71;98951.66;344549;28;906;-78
2022/08/16 00:11:49;;;;;;;373.50;266.55;;;;;;;24.07;73.10;98955.66;346767;28;1321;-77
2022/08/16 00:11:59;;;;;;;370.57;261.27;;;;;;;24.02;73.19;98955.31;347216;28;994;-77
2022/08/16 00:12:10;;;;;;;371.80;262.77;;;;;;;23.99;73.48;98952.13;347061;28;975;-77
2022/08/16 00:12:20;;;;;;;374.37;266.23;;;;;;;23.94;73.29;98947.28;345650;28;1255;-77
2022/08/16 00:12:31;;;;;;;376.27;270.77;;;;;;;23.93;73.92;98953.63;341813;28;772;-77
2022/08/16 00:12:41;;;;;;;375.50;271.92;;;;;;;23.93;73.74;98958.13;344128;28;1385;-77
2022/08/16 00:12:52;;;;;;;374.23;270.67;;;;;;;23.93;74.22;98953.63;340503;28;1762;-77
2022/08/16 00:13:04;;;;;;;374.77;269.45;;;;;;;23.94;73.96;98957.97;342665;28;1277;-76
2022/08/16 00:13:14;;;;;;;373.60;266.92;;;;;;;23.96;74.04;98958.66;340264;28;1197;-76
2022/08/16 00:13:25;;;;;;;373.90;267.45;;;;;;;23.98;73.89;98962.00;340274;29;1348;-75
2022/08/16 00:13:35;;;;;;;372.90;269.80;;;;;;;23.99;73.74;98958.31;338915;29;1461;-75
2022/08/16 00:13:47;;;;;;;376.90;273.43;;;;;;;24.00;73.61;98949.31;342224;28;830;-76
2022/08/16 00:13:57;;;;;;;378.35;273.67;;;;;;;24.01;73.76;98945.63;340790;29;907;-76
2022/08/16 00:14:11;;;;;;;379.63;275.02;;;;;;;24.01;73.98;98955.50;341424;28;841;-76
2022/08/16 00:14:24;;;;;;;380.75;274.58;;;;;;;23.99;73.87;98947.63;340265;28;1128;-76
2022/08/16 00:14:35;;;;;;;378.30;274.13;;;;;;;24.01;73.89;98945.63;340339;29;1405;-76
2022/08/16 00:14:45;;;;;;;377.30;274.23;;;;;;;24.00;73.75;98949.31;344225;28;1093;-76
2022/08/16 00:14:56;;;;;;;378.23;273.13;;;;;;;24.00;74.02;98943.97;345452;28;1465;-76
2022/08/16 00:15:16;;;;;;;379.60;273.63;;;;;;;24.00;74.05;98946.63;341029;28;2196;-76
2022/08/16 00:15:37;;;;;;;377.20;271.08;;;;;;;24.03;73.73;98948.13;343029;28;1704;-76
2022/08/16 00:15:48;;;;;;;378.42;274.42;;;;;;;24.03;73.79;98946.31;344289;28;1418;-76
2022/08/16 00:15:58;;;;;;;376.60;274.47;;;;;;;24.05;73.94;98949.66;345492;28;1415;-76
2022/08/16 00:16:09;;;;;;;374.58;272.38;;;;;;;24.04;73.89;98949.81;341133;28;1345;-76
2022/08/16 00:16:19;;;;;;;375.67;271.10;;;;;;;24.03;73.51;98945.47;340877;29;882;-76
2022/08/16 00:16:33;;;;;;;375.23;268.30;;;;;;;23.98;74.05;98951.31;343608;28;913;-76
2022/08/16 00:16:43;;;;;;;374.60;267.02;;;;;;;23.97;73.77;98954.97;340039;29;1403;-76
2022/08/16 00:16:54;;;;;;;377.33;273.97;;;;;;;23.93;74.26;98948.28;337210;29;1683;-76
2022/08/16 00:17:04;;;;;;;376.60;274.63;;;;;;;23.95;74.13;98943.59;335260;29;815;-76
2022/08/16 00:17:15;;;;;;;377.73;275.10;;;;;;;23.95;74.71;98956.13;336014;29;1622;-77
2022/08/16 00:17:25;;;;;;;375.52;270.48;;;;;;;23.93;74.18;98950.13;334769;29;2090;-77
2022/08/16 00:17:36;;;;;;;377.73;272.00;;;;;;;23.93;74.23;98953.63;332330;29;2207;-77
2022/08/16 00:17:46;;;;;;;378.13;274.07;;;;;;;23.93;74.26;98950.97;330205;29;874;-77
2022/08/16 00:17:56;;;;;;;379.13;275.17;;;;;;;23.95;74.44;98946.28;328485;30;1824;-76
2022/08/16 00:18:08;;;;;;;376.93;273.40;;;;;;;23.96;74.53;98955.97;329027;29;863;-76
2022/08/16 00:18:19;;;;;;;377.08;269.27;;;;;;;23.98;74.05;98947.78;332632;29;939;-76
2022/08/16 00:18:29;;;;;;;379.33;270.50;;;;;;;23.98;74.43;98950.47;332435;29;1232;-76
2022/08/16 00:18:40;;;;;;;379.37;271.03;;;;;;;23.98;74.24;98945.13;326674;30;1719;-76
2022/08/16 00:18:50;;;;;;;378.55;274.42;;;;;;;23.98;74.43;98948.63;325250;30;833;-77
2022/08/16 00:19:01;;;;;;;376.63;278.17;;;;;;;23.98;74.53;98948.63;329294;30;1193;-77
2022/08/16 00:19:13;;;;;;;378.48;280.83;;;;;;;23.99;74.36;98947.63;331075;29;1865;-77
2022/08/16 00:19:26;;;;;;;375.67;274.60;;;;;;;24.00;74.27;98954.66;328081;29;2180;-76
2022/08/16 00:19:36;;;;;;;374.83;268.10;;;;;;;24.01;74.25;98945.63;324733;30;2733;-77
2022/08/16 00:19:47;;;;;;;374.52;266.02;;;;;;;24.02;74.21;98958.00;325110;30;848;-77
2022/08/16 00:19:57;;;;;;;378.90;268.13;;;;;;;24.02;73.99;98952.66;324250;30;2738;-77
2022/08/16 00:20:09;;;;;;;378.83;268.95;;;;;;;24.01;74.29;98945.63;324110;30;1967;-77
2022/08/16 00:20:20;;;;;;;378.05;271.33;;;;;;;24.01;74.56;98956.31;323432;30;4268;-77
2022/08/16 00:20:32;;;;;;;379.33;276.02;;;;;;;24.00;74.77;98953.81;323963;30;857;-76
2022/08/16 00:20:43;;;;;;;383.30;274.77;;;;;;;24.01;74.13;98956.31;320407;30;1898;-77
2022/08/16 00:20:53;;;;;;;382.58;274.25;;;;;;;24.01;74.62;98948.31;317125;30;3266;-77
2022/08/16 00:21:04;;;;;;;380.70;277.60;;;;;;;24.03;74.41;98948.13;317597;31;1064;-77
2022/08/16 00:21:14;;;;;;;377.80;277.33;;;;;;;24.03;74.10;98948.13;319191;30;2607;-77
2022/08/16 00:21:25;;;;;;;377.50;276.70;;;;;;;24.04;74.29;98958.66;317400;30;2647;-77
2022/08/16 00:21:35;;;;;;;377.45;274.25;;;;;;;24.02;74.30;98951.81;318750;31;1395;-77
2022/08/16 00:21:46;;;;;;;378.13;274.13;;;;;;;24.02;74.50;98952.66;315437;31;1350;-77
2022/08/16 00:21:56;;;;;;;377.50;272.52;;;;;;;24.03;74.14;98957.00;314348;31;3434;-77
2022/08/16 00:22:07;;;;;;;377.27;270.50;;;;;;;24.02;74.70;98947.31;314851;31;3330;-76
2022/08/16 00:22:17;;;;;;;377.23;271.20;;;;;;;24.03;74.19;98948.13;316905;31;866;-76
2022/08/16 00:22:28;;;;;;;377.73;271.00;;;;;;;24.02;74.56;98952.66;313383;31;2574;-77
2022/08/16 00:22:39;;;;;;;379.27;269.83;;;;;;;24.02;74.38;98957.16;312381;31;2491;-77
2022/08/16 00:22:50;;;;;;;378.95;272.38;;;;;;;24.02;74.38;98946.47;311298;31;1336;-76
2022/08/16 00:23:00;;;;;;;379.73;274.40;;;;;;;24.02;74.23;98952.66;310468;31;2416;-77
2022/08/16 00:23:11;;;;;;;379.03;274.43;;;;;;;24.02;74.42;98963.34;309549;31;3166;-77
2022/08/16 00:23:21;;;;;;;380.30;273.15;;;;;;;24.01;74.61;98950.97;308855;31;3107;-77
2022/08/16 00:23:32;;;;;;;377.08;270.85;;;;;;;24.04;74.53;98966.69;306036;32;1247;-77
2022/08/16 00:23:42;;;;;;;375.53;270.50;;;;;;;24.02;74.69;98955.31;303537;32;3912;-77
2022/08/16 00:23:52;;;;;;;374.23;267.37;;;;;;;24.00;74.69;98960.00;303156;31;3930;-77
2022/08/16 00:24:03;;;;;;;375.52;268.23;;;;;;;24.01;74.31;98955.50;311098;31;853;-76
2022/08/16 00:24:15;;;;;;;374.98;267.20;;;;;;;24.01;74.41;98955.50;312016;31;4583;-76
2022/08/16 00:24:26;;;;;;;375.38;269.27;;;;;;;24.02;74.69;98957.16;309050;31;4774;-77
2022/08/16 00:24:36;;;;;;;373.50;266.38;;;;;;;24.03;74.44;98953.47;308672;31;3181;-77
2022/08/16 00:24:46;;;;;;;373.20;265.52;;;;;;;24.01;74.33;98956.31;311517;31;1533;-77
2022/08/16 00:24:57;;;;;;;376.03;267.10;;;;;;;24.02;74.38;98958.00;307162;32;3215;-77
2022/08/16 00:25:10;;;;;;;377.30;267.53;;;;;;;24.02;74.61;98958.00;306026;31;3754;-76
2022/08/16 00:25:21;;;;;;;380.02;267.63;;;;;;;24.01;74.12;98963.50;308088;32;1005;-77
2022/08/16 00:25:31;;;;;;;377.88;267.48;;;;;;;24.01;74.32;98966.19;296565;33;1322;-76
2022/08/16 00:25:42;;;;;;;379.50;268.37;;;;;;;24.01;74.63;98956.31;293376;33;4541;-76
2022/08/16 00:25:52;;;;;;;378.95;269.70;;;;;;;23.99;74.65;98958.31;292116;33;5886;-76
2022/08/16 00:26:03;;;;;;;381.87;272.37;;;;;;;24.00;74.60;98951.97;293565;33;1225;-76
2022/08/16 00:26:13;;;;;;;378.40;270.33;;;;;;;23.99;74.74;98960.16;295812;33;5591;-76
2022/08/16 00:26:24;;;;;;;377.23;269.88;;;;;;;23.99;74.39;98963.66;294634;33;6457;-77
2022/08/16 00:26:34;;;;;;;376.33;267.50;;;;;;;23.99;74.39;98963.66;294593;33;1367;-77
2022/08/16 00:26:45;;;;;;;378.50;270.70;;;;;;;23.98;74.41;98959.31;292989;33;6356;-77
2022/08/16 00:26:55;;;;;;;380.87;272.90;;;;;;;23.98;74.24;98967.34;294054;33;4593;-77
2022/08/16 00:27:05;;;;;;;379.50;273.48;;;;;;;23.97;74.34;98964.84;293457;33;1894;-77
2022/08/16 00:27:16;;;;;;;378.00;268.93;;;;;;;23.97;74.63;98957.66;288813;34;848;-77
2022/08/16 00:27:26;;;;;;;379.58;270.02;;;;;;;23.99;74.78;98971.69;284894;34;6126;-76
2022/08/16 00:27:37;;;;;;;379.20;270.80;;;;;;;23.98;74.51;98964.66;284402;34;6331;-76
2022/08/16 00:27:47;;;;;;;379.15;270.92;;;;;;;23.97;74.42;98968.34;284989;34;1558;-77
2022/08/16 00:29:58;;;;;;;361.73;244.99;;;;;;;23.97;74.77;98970.19;2496741;27;20284;-76
2022/08/16 00:30:11;;;;;;;372.23;267.23;;;;;;;23.96;74.86;98969.34;352522;28;1239;-76
2022/08/16 00:30:22;;;;;;;367.95;262.33;;;;;;;23.97;74.72;98964.84;348449;28;843;-76
2022/08/16 00:30:32;;;;;;;368.83;258.13;;;;;;;23.98;74.95;98966.50;348365;28;1191;-76
2022/08/16 00:30:43;;;;;;;368.70;254.53;;;;;;;23.95;74.79;98967.66;349783;28;1487;-76
2022/08/16 00:30:53;;;;;;;367.80;255.68;;;;;;;23.94;75.04;98968.66;348398;28;1508;-76
2022/08/16 00:31:04;;;;;;;368.10;260.70;;;;;;;23.94;74.91;98966.00;348657;28;1231;-76
2022/08/16 00:31:14;;;;;;;370.77;264.67;;;;;;;23.93;74.92;98967.00;347046;28;863;-76
2022/08/16 00:31:25;;;;;;;371.33;265.33;;;;;;;23.94;75.20;98970.50;348226;28;885;-76
2022/08/16 00:31:35;;;;;;;371.13;266.33;;;;;;;23.93;75.23;98964.31;346956;28;1392;-76
2022/08/16 00:31:48;;;;;;;371.92;268.33;;;;;;;23.95;74.88;98970.34;348039;28;1015;-76
2022/08/16 00:31:59;;;;;;;372.13;266.33;;;;;;;23.94;75.00;98971.34;350587;28;1394;-77
2022/08/16 00:32:09;;;;;;;373.85;265.88;;;;;;;23.95;75.03;98965.00;349195;28;1239;-77
2022/08/16 00:32:20;;;;;;;371.77;263.97;;;;;;;23.94;75.19;98971.34;348533;28;883;-78
2022/08/16 00:32:30;;;;;;;371.40;266.98;;;;;;;23.93;74.94;98969.66;348431;28;1320;-77
2022/08/16 00:32:42;;;;;;;371.13;266.10;;;;;;;23.93;74.83;98969.66;349843;28;792;-78
2022/08/16 00:32:55;;;;;;;376.33;268.55;;;;;;;23.94;74.95;98976.69;350108;28;1009;-77
2022/08/16 00:33:05;;;;;;;373.55;261.52;;;;;;;23.94;74.99;98976.69;350969;28;1098;-76
2022/08/16 00:33:16;;;;;;;374.13;262.63;;;;;;;23.92;74.93;98973.34;348534;28;1119;-76
2022/08/16 00:33:26;;;;;;;368.58;263.10;;;;;;;23.94;74.95;98966.00;347090;28;893;-76
2022/08/16 00:33:37;;;;;;;373.50;268.53;;;;;;;23.93;74.93;98975.00;348224;28;1213;-76
2022/08/16 00:33:47;;;;;;;375.05;267.05;;;;;;;23.92;75.07;98973.34;349510;28;1190;-76
2022/08/16 00:33:58;;;;;;;378.87;268.67;;;;;;;23.93;74.92;98974.19;347078;28;851;-76
2022/08/16 00:34:08;;;;;;;375.92;267.83;;;;;;;23.91;75.17;98971.66;346884;28;1231;-76
2022/08/16 00:34:20;;;;;;;376.43;271.60;;;;;;;23.90;74.72;98972.66;344264;28;1011;-76
2022/08/16 00:34:30;;;;;;;372.55;269.42;;;;;;;23.92;74.96;98976.00;345770;28;1268;-76
2022/08/16 00:34:41;;;;;;;373.37;268.30;;;;;;;23.91;74.84;98973.50;345821;28;1282;-76
2022/08/16 00:34:52;;;;;;;372.60;268.40;;;;;;;23.89;75.16;98979.84;344767;28;855;-76
2022/08/16 00:35:03;;;;;;;377.53;273.00;;;;;;;23.89;74.94;98971.00;343077;28;1203;-76
2022/08/16 00:35:16;;;;;;;375.55;273.15;;;;;;;23.89;74.85;98968.31;343044;28;912;-76
2022/08/16 00:35:34;;;;;;;372.55;267.10;;;;;;;23.90;74.86;98975.34;345653;28;1303;-76
2022/08/16 00:35:45;;;;;;;372.05;265.33;;;;;;;23.88;74.80;98972.00;342959;28;1380;-76
2022/08/16 00:35:55;;;;;;;379.03;271.97;;;;;;;23.88;74.92;98977.34;341421;28;972;-76
2022/08/16 00:36:06;;;;;;;386.77;277.90;;;;;;;23.86;75.02;98971.31;342512;28;1111;-77
2022/08/16 00:36:16;;;;;;;388.20;278.00;;;;;;;23.87;74.52;98973.00;342841;28;1640;-77
2022/08/16 00:36:27;;;;;;;382.33;273.58;;;;;;;23.86;74.93;98974.00;337750;29;1287;-77
2022/08/16 00:36:37;;;;;;;372.00;268.40;;;;;;;23.86;74.98;98968.66;337043;29;1185;-77
2022/08/16 00:36:48;;;;;;;372.73;268.37;;;;;;;23.87;75.02;98986.34;338957;29;1299;-76
2022/08/16 00:36:58;;;;;;;371.30;268.35;;;;;;;23.86;74.77;98974.81;340352;29;1221;-76
2022/08/16 00:37:09;;;;;;;369.30;265.17;;;;;;;23.86;74.76;98974.81;342424;28;1297;-76
2022/08/16 00:37:23;;;;;;;366.08;264.25;;;;;;;23.87;74.41;98971.16;342292;28;970;-76
2022/08/16 00:37:33;;;;;;;371.70;266.13;;;;;;;23.87;74.86;98975.66;344534;28;954;-76
2022/08/16 00:37:44;;;;;;;377.60;271.33;;;;;;;23.86;74.83;98980.16;342171;28;1003;-77
2022/08/16 00:37:55;;;;;;;377.30;269.47;;;;;;;23.86;74.66;98979.34;340179;29;1456;-77
2022/08/16 00:38:05;;;;;;;373.67;263.17;;;;;;;23.87;74.81;98975.66;339173;29;1168;-77
2022/08/16 00:38:16;;;;;;;373.25;261.60;;;;;;;23.87;74.48;98981.00;339399;29;944;-77
2022/08/16 00:38:26;;;;;;;375.43;266.03;;;;;;;23.87;74.41;98976.50;337845;29;1289;-77
2022/08/16 00:38:36;;;;;;;374.60;266.83;;;;;;;23.89;74.73;98984.34;332950;29;3880;-77
2022/08/16 00:38:47;;;;;;;372.50;267.10;;;;;;;23.89;74.88;98982.53;332547;29;5034;-76
2022/08/16 00:38:57;;;;;;;372.43;266.77;;;;;;;23.87;74.78;98973.00;334240;29;1204;-76
2022/08/16 00:39:08;;;;;;;373.10;265.67;;;;;;;23.88;74.63;98982.69;334134;29;1255;-76
2022/08/16 00:39:18;;;;;;;374.40;265.73;;;;;;;23.88;74.92;98978.19;335947;29;1897;-78
2022/08/16 00:39:29;;;;;;;371.67;259.45;;;;;;;23.89;74.70;98979.00;331919;29;1374;-77
2022/08/16 00:39:40;;;;;;;368.98;258.95;;;;;;;23.89;74.81;98982.53;330443;29;1183;-77
2022/08/16 00:39:51;;;;;;;368.27;258.30;;;;;;;23.89;74.54;98979.00;332088;29;1637;-77
2022/08/16 00:40:03;;;;;;;372.33;266.60;;;;;;;23.89;75.15;98981.69;331994;29;1769;-76
2022/08/16 00:40:19;;;;;;;373.88;267.60;;;;;;;23.89;74.87;98979.00;329130;30;1456;-76
2022/08/16 00:40:41;;;;;;;377.30;266.73;;;;;;;23.89;74.63;98979.84;327955;29;1461;-76
2022/08/16 00:40:52;;;;;;;377.55;268.05;;;;;;;23.89;74.60;98981.69;325106;30;2182;-76
2022/08/16 00:41:02;;;;;;;375.77;267.43;;;;;;;23.90;74.36;98988.69;325469;30;1746;-76
2022/08/16 00:41:12;;;;;;;373.40;262.73;;;;;;;23.89;74.62;98984.34;323271;30;1239;-76
2022/08/16 00:41:23;;;;;;;373.37;265.50;;;;;;;23.90;74.38;98986.03;322590;30;1768;-76
2022/08/16 00:41:34;;;;;;;371.75;263.90;;;;;;;23.90;74.53;98988.69;325887;30;1347;-76
2022/08/16 00:41:45;;;;;;;372.40;265.23;;;;;;;23.88;74.80;98982.69;326915;30;804;-76
2022/08/16 00:41:56;;;;;;;372.23;263.27;;;;;;;23.88;74.77;98978.19;322841;30;1852;-76
2022/08/16 00:42:06;;;;;;;372.10;263.27;;;;;;;23.88;74.79;98978.19;322673;30;2541;-76
2022/08/16 00:42:17;;;;;;;372.93;263.30;;;;;;;23.88;74.65;98988.88;322782;30;2400;-76
2022/08/16 00:42:28;;;;;;;372.73;264.77;;;;;;;23.88;74.57;98982.69;323595;30;837;-76
2022/08/16 00:42:39;;;;;;;373.30;267.92;;;;;;;23.88;74.25;98982.69;323724;30;2365;-76
2022/08/16 00:42:49;;;;;;;374.37;269.50;;;;;;;23.87;74.34;98975.66;325698;29;2403;-76
2022/08/16 00:43:00;;;;;;;371.97;266.53;;;;;;;23.87;74.32;98984.53;325462;30;1464;-76
2022/08/16 00:43:17;;;;;;;370.77;263.45;;;;;;;23.87;74.62;98986.34;320789;30;2566;-76
2022/08/16 00:43:33;;;;;;;368.60;260.95;;;;;;;23.86;74.54;98982.84;321936;30;1373;-76
2022/08/16 00:43:43;;;;;;;368.42;260.35;;;;;;;23.87;74.51;98981.84;318486;31;1245;-76
2022/08/16 00:43:54;;;;;;;372.80;263.10;;;;;;;23.88;74.33;98982.69;318444;30;2183;-76
2022/08/16 00:44:09;;;;;;;372.57;261.37;;;;;;;23.88;74.67;98988.03;313548;31;2540;-77
2022/08/16 00:44:20;;;;;;;372.45;263.05;;;;;;;23.85;74.55;98989.19;311462;31;3457;-77
2022/08/16 00:44:30;;;;;;;370.83;264.60;;;;;;;23.85;74.33;98983.00;311767;31;1323;-77
2022/08/16 00:44:42;;;;;;;369.48;264.20;;;;;;;23.86;74.70;98990.88;310778;31;3277;-76
2022/08/16 00:44:55;;;;;;;371.38;266.83;;;;;;;23.86;74.27;98987.34;309354;31;3848;-76
2022/08/16 00:45:14;;;;;;;373.83;266.85;;;;;;;23.86;74.35;98990.88;306634;32;3151;-76
2022/08/16 00:45:47;;;;;;;372.13;261.20;;;;;;;23.87;74.44;98991.69;305125;32;3032;-77
2022/08/16 00:46:30;;;;;;;367.60;265.15;;;;;;;23.84;74.53;98987.50;299836;32;1389;-76
2022/08/16 00:47:00;;;;;;;368.60;267.05;;;;;;;23.84;74.38;98984.00;294050;33;4693;-76
2022/08/16 00:47:15;;;;;;;370.63;264.60;;;;;;;23.81;74.60;98982.53;290836;33;4827;-76
2022/08/16 00:47:25;;;;;;;371.15;262.67;;;;;;;23.82;74.63;98988.72;289365;33;4793;-77
2022/08/16 00:47:38;;;;;;;373.27;262.08;;;;;;;23.84;74.57;98986.69;290212;33;4071;-77
2022/08/16 00:47:49;;;;;;;372.98;265.05;;;;;;;23.83;74.35;98985.00;289855;33;3579;-77
2022/08/16 00:47:59;;;;;;;374.93;268.70;;;;;;;23.82;74.81;98978.84;286968;34;2230;-76
2022/08/16 00:48:10;;;;;;;371.65;265.67;;;;;;;23.82;74.87;98973.50;291640;33;2700;-76
2022/08/16 00:48:21;;;;;;;373.05;265.73;;;;;;;23.82;74.75;98978.84;290047;33;4039;-76
2022/08/16 00:48:32;;;;;;;372.20;265.35;;;;;;;23.82;74.87;98984.19;286240;34;3202;-76
2022/08/16 00:48:43;;;;;;;371.63;267.05;;;;;;;23.80;74.82;98980.84;283518;34;1442;-76
2022/08/16 00:48:54;;;;;;;370.73;265.73;;;;;;;23.74;74.99;98978.81;278900;34;6643;-76
2022/08/16 00:49:06;;;;;;;370.90;266.17;;;;;;;23.70;75.39;98984.66;276990;34;6981;-76
2022/08/16 00:49:17;;;;;;;367.70;261.20;;;;;;;23.67;74.92;98977.78;278017;34;6925;-76
2022/08/16 00:49:27;;;;;;;370.13;263.20;;;;;;;23.66;75.16;98985.97;280941;35;881;-76
2022/08/16 00:49:38;;;;;;;372.30;265.90;;;;;;;23.63;75.53;98973.75;280879;35;5750;-76
2022/08/16 00:49:48;;;;;;;375.00;267.83;;;;;;;23.64;75.27;98982.63;278340;35;5460;-76
2022/08/16 00:49:59;;;;;;;375.10;268.83;;;;;;;23.65;75.54;98986.97;278241;35;1048;-76
2022/08/16 00:50:09;;;;;;;372.40;266.45;;;;;;;23.66;75.53;98975.28;276803;35;5026;-76
2022/08/16 00:50:22;;;;;;;371.93;268.17;;;;;;;23.65;75.51;98971.78;275646;35;4572;-76
2022/08/16 00:50:37;;;;;;;374.17;270.98;;;;;;;23.67;75.27;98980.47;274289;35;6313;-76
2022/08/16 00:50:47;;;;;;;376.90;272.15;;;;;;;23.68;75.15;98982.13;275121;35;7157;-77
2022/08/16 00:51:01;;;;;;;374.90;269.90;;;;;;;23.68;75.12;98981.31;276244;35;1706;-77
2022/08/16 00:51:13;;;;;;;371.02;266.50;;;;;;;23.68;75.03;98979.47;275171;35;880;-77
2022/08/16 00:51:24;;;;;;;368.60;265.38;;;;;;;23.66;75.05;98970.78;276578;35;9837;-78
2022/08/16 00:53:18;;;;;;;363.21;250.80;;;;;;;23.68;74.71;98979.47;2496444;27;20266;-77
2022/08/16 00:53:28;;;;;;;376.57;272.13;;;;;;;23.70;74.84;98973.97;352829;28;1317;-77
2022/08/16 00:53:39;;;;;;;375.48;269.77;;;;;;;23.70;74.90;98979.31;348788;28;1297;-76
2022/08/16 00:53:49;;;;;;;374.80;267.17;;;;;;;23.71;74.51;98976.47;347592;28;969;-76
2022/08/16 00:54:00;;;;;;;373.25;266.20;;;;;;;23.68;74.84;98982.13;347574;28;1065;-76
2022/08/16 00:54:11;;;;;;;375.13;264.83;;;;;;;23.69;74.47;98972.28;348738;28;1232;-76
2022/08/16 00:54:23;;;;;;;376.17;266.23;;;;;;;23.68;74.71;98979.47;348800;28;930;-77
2022/08/16 00:54:33;;;;;;;377.98;263.77;;;;;;;23.70;74.15;98974.81;348900;28;954;-76
2022/08/16 00:54:43;;;;;;;376.70;263.88;;;;;;;23.69;74.50;98972.28;349839;28;802;-76
2022/08/16 00:54:54;;;;;;;376.77;263.00;;;;;;;23.70;74.76;98977.47;350174;28;1338;-78
2022/08/16 00:55:05;;;;;;;377.73;266.98;;;;;;;23.70;74.83;98974.81;348730;28;1053;-77
2022/08/16 00:55:15;;;;;;;378.87;269.13;;;;;;;23.71;74.50;98976.47;352759;28;996;-77
2022/08/16 00:55:25;;;;;;;378.65;270.48;;;;;;;23.70;74.78;98972.13;353033;28;1213;-77
2022/08/16 00:55:38;;;;;;;376.73;269.37;;;;;;;23.69;74.79;98966.94;351094;28;882;-77
2022/08/16 00:55:50;;;;;;;374.90;266.58;;;;;;;23.72;74.69;98977.31;347945;28;1881;-77
2022/08/16 00:56:04;;;;;;;373.70;261.10;;;;;;;23.71;74.52;98973.81;347461;28;872;-77
2022/08/16 00:56:17;;;;;;;377.00;262.98;;;;;;;23.72;74.43;98971.97;347462;28;856;-77
2022/08/16 00:56:30;;;;;;;376.75;263.65;;;;;;;23.70;74.65;98971.28;347430;28;1050;-77
2022/08/16 00:56:42;;;;;;;375.27;263.52;;;;;;;23.70;74.52;98976.63;345473;28;1014;-77
2022/08/16 00:56:53;;;;;;;377.63;265.08;;;;;;;23.69;74.65;98974.97;344963;28;1395;-77
2022/08/16 00:57:04;;;;;;;376.75;268.40;;;;;;;23.68;74.71;98970.63;342980;28;4990;-77
2022/08/16 00:57:14;;;;;;;375.20;268.33;;;;;;;23.69;74.87;98972.28;344232;28;5084;-77
2022/08/16 00:57:25;;;;;;;376.33;267.27;;;;;;;23.69;74.61;98972.28;342663;28;1304;-77
2022/08/16 00:57:35;;;;;;;376.10;264.85;;;;;;;23.68;74.63;98973.28;340743;29;1227;-77
2022/08/16 00:57:46;;;;;;;376.58;264.30;;;;;;;23.67;74.52;98972.44;341125;28;973;-77
2022/08/16 00:57:56;;;;;;;373.53;262.67;;;;;;;23.68;74.60;98967.94;344289;28;1186;-77